New Hartford, Missouri
Current Conditions -  °F | °C
As of 11:15 PM on Friday 28 Nov 2014 (Local Time) from KFYG Reporting Station
Clear Clear  
Wind Chill: 40°   Ceiling: Unl
Heat Index: 45°   Visibility: 10mi
Dew Point: 32°   Wind: 8mph
Humidity: 61%   Direction: 130°SE
Pressure: 29.87"   Gusts: NA
Location:  39.095°N, 91.3649°W
Report Text: KFYG 290515Z AUTO 13007KT 10SM CLR 07/00 A2987 RMK AO2
Loading
Personal Weather Stations






























Interactive Weather Map New forecast layout! Learn more

10-Day Weather Forecast

Advertisements
Track Severe Weather on mobile